RJTE(METAR)
06/28 22:00
METAR RJTE 281300Z 11002KT 7000 FEW015 SCT230 21/20 Q1014 RMK 1CU015
A2995=
戻る
トップページへ戻る
IMOC Co,.Ltd.